createdAt,value
2018-02-12T00:01:39.094Z,1.41
2018-02-12T00:04:06.766Z,1.43
2018-02-12T00:06:34.312Z,1.40
2018-02-12T00:09:01.866Z,1.44
2018-02-12T00:11:29.589Z,1.42
2018-02-12T00:13:57.133Z,1.42
2018-02-12T00:16:24.666Z,1.44
2018-02-12T00:18:53.391Z,1.41
2018-02-12T00:21:20.943Z,1.38
2018-02-12T00:23:48.481Z,1.26
2018-02-12T00:26:16.228Z,1.26
2018-02-12T00:28:43.785Z,1.27
2018-02-12T00:31:11.327Z,1.31
2018-02-12T00:33:39.062Z,1.35
2018-02-12T00:36:06.607Z,1.34
2018-02-12T00:38:34.147Z,1.28
2018-02-12T00:41:01.734Z,1.23
2018-02-12T00:43:29.286Z,1.33
2018-02-12T00:45:56.828Z,1.38
2018-02-12T00:48:24.498Z,1.49
2018-02-12T00:50:52.046Z,1.42
2018-02-12T00:53:19.586Z,1.40
2018-02-12T00:55:47.192Z,1.47
2018-02-12T00:58:14.730Z,1.45
2018-02-12T01:00:42.266Z,1.48
2018-02-12T01:03:09.845Z,1.30
2018-02-12T01:05:37.391Z,1.40
2018-02-12T01:08:04.946Z,1.34
2018-02-12T01:10:32.506Z,1.42
2018-02-12T01:13:00.053Z,1.39
2018-02-12T01:15:27.642Z,1.43
2018-02-12T01:17:55.178Z,1.39
2018-02-12T01:20:22.726Z,1.37
2018-02-12T01:22:51.049Z,1.27
2018-02-12T01:25:18.592Z,1.36
2018-02-12T01:27:46.153Z,1.36
2018-02-12T01:30:13.745Z,1.40
2018-02-12T01:32:41.299Z,1.40
2018-02-12T01:35:08.840Z,1.37
2018-02-12T01:37:36.649Z,1.34
2018-02-12T01:40:04.197Z,1.21
2018-02-12T01:42:31.738Z,1.23
2018-02-12T01:44:59.411Z,1.30
2018-02-12T01:47:26.953Z,1.35
2018-02-12T01:50:06.471Z,1.35
2018-02-12T01:52:34.007Z,1.30
2018-02-12T01:55:01.576Z,1.34
2018-02-12T01:57:29.312Z,1.33
2018-02-12T01:59:56.847Z,1.34
2018-02-12T02:02:24.412Z,1.36
2018-02-12T02:04:52.148Z,1.36
2018-02-12T02:07:19.699Z,1.32
2018-02-12T02:09:47.248Z,1.28
2018-02-12T02:12:14.930Z,1.27
2018-02-12T02:14:42.482Z,1.34
2018-02-12T02:17:10.094Z,1.36
2018-02-12T02:19:37.967Z,1.33
2018-02-12T02:22:05.514Z,1.37
2018-02-12T02:24:33.054Z,1.35
2018-02-12T02:27:00.625Z,1.32
2018-02-12T02:29:28.176Z,1.34
2018-02-12T02:31:55.721Z,1.32
2018-02-12T02:34:23.463Z,1.38
2018-02-12T02:36:51.023Z,1.48
2018-02-12T02:39:18.598Z,1.49
2018-02-12T02:41:46.469Z,1.39
2018-02-12T02:44:14.024Z,1.28
2018-02-12T02:46:41.583Z,1.22
2018-02-12T02:49:09.453Z,1.07
2018-02-12T02:51:37.009Z,1.06
2018-02-12T02:54:04.572Z,1.03
2018-02-12T02:56:32.149Z,1.00
2018-02-12T02:58:59.696Z,1.06
2018-02-12T03:01:27.242Z,1.04
2018-02-12T03:03:54.822Z,1.13
2018-02-12T03:06:22.373Z,1.21
2018-02-12T03:08:49.918Z,1.12
2018-02-12T03:11:17.505Z,1.15
2018-02-12T03:13:45.059Z,1.13
2018-02-12T03:16:12.606Z,1.23
2018-02-12T03:18:40.342Z,1.18
2018-02-12T03:21:07.906Z,1.18
2018-02-12T03:23:35.483Z,1.16
2018-02-12T03:26:03.062Z,1.21
2018-02-12T03:28:30.619Z,1.26
2018-02-12T03:30:58.176Z,1.12
2018-02-12T03:33:25.865Z,1.11
2018-02-12T03:35:53.407Z,1.19
2018-02-12T03:38:20.957Z,1.18
2018-02-12T03:40:48.529Z,1.21
2018-02-12T03:43:16.073Z,1.26
2018-02-12T03:45:48.080Z,1.28
2018-02-12T03:48:15.774Z,1.27
2018-02-12T03:50:43.315Z,1.13
2018-02-12T03:53:10.863Z,1.14
2018-02-12T03:55:38.456Z,0.97
2018-02-12T03:58:06.005Z,1.11
2018-02-12T04:00:33.554Z,1.14
2018-02-12T04:03:01.246Z,1.22
2018-02-12T04:05:28.803Z,1.31
2018-02-12T04:07:56.377Z,1.35
2018-02-12T04:10:23.923Z,1.43
2018-02-12T04:12:51.479Z,1.41
2018-02-12T04:15:19.143Z,1.48
2018-02-12T04:17:46.691Z,1.42
2018-02-12T04:20:14.240Z,1.45
2018-02-12T04:22:41.945Z,1.33
2018-02-12T04:25:09.493Z,1.34
2018-02-12T04:27:37.043Z,1.34
2018-02-12T04:30:04.664Z,1.39
2018-02-12T04:32:32.216Z,1.43
2018-02-12T04:34:59.757Z,1.41
2018-02-12T04:37:27.704Z,1.44
2018-02-12T04:39:55.256Z,1.40
2018-02-12T04:42:22.798Z,1.34
2018-02-12T04:44:50.388Z,1.15
2018-02-12T04:47:17.943Z,1.13
2018-02-12T04:49:45.482Z,1.18
2018-02-12T04:52:13.102Z,1.18
2018-02-12T04:54:40.644Z,1.20
2018-02-12T04:57:08.192Z,1.14
2018-02-12T04:59:36.058Z,1.15
2018-02-12T05:02:03.607Z,1.18
2018-02-12T05:04:31.173Z,1.11
2018-02-12T05:06:58.859Z,1.16
2018-02-12T05:09:26.403Z,1.07
2018-02-12T05:11:53.957Z,1.10
2018-02-12T05:14:21.574Z,1.12
2018-02-12T05:16:49.132Z,1.15
2018-02-12T05:19:16.689Z,1.17
2018-02-12T05:21:44.377Z,1.15
2018-02-12T05:24:11.950Z,1.17
2018-02-12T05:26:39.514Z,1.06
2018-02-12T05:29:07.113Z,1.11
2018-02-12T05:31:34.655Z,1.05
2018-02-12T05:34:02.203Z,1.06
2018-02-12T05:36:29.922Z,1.10
2018-02-12T05:38:57.562Z,1.03
2018-02-12T05:41:25.112Z,1.09
2018-02-12T05:43:52.710Z,1.15
2018-02-12T05:46:20.268Z,1.21
2018-02-12T05:48:47.814Z,1.20
2018-02-12T05:51:15.508Z,1.21
2018-02-12T05:53:43.050Z,1.20
2018-02-12T05:56:10.638Z,1.25
2018-02-12T05:58:38.210Z,1.17
2018-02-12T06:01:05.771Z,1.20
2018-02-12T06:03:33.310Z,1.15
2018-02-12T06:06:00.898Z,1.13
2018-02-12T06:08:28.510Z,1.05
2018-02-12T06:10:56.062Z,0.95
2018-02-12T06:13:23.747Z,1.13
2018-02-12T06:15:51.308Z,1.16
2018-02-12T06:18:18.855Z,1.21
2018-02-12T06:20:46.597Z,1.26
2018-02-12T06:23:14.154Z,1.31
2018-02-12T06:25:41.704Z,1.41
2018-02-12T06:28:09.581Z,1.51
2018-02-12T06:30:37.125Z,1.57
2018-02-12T06:33:04.669Z,1.65
2018-02-12T06:35:32.245Z,1.76
2018-02-12T06:37:59.792Z,1.78
2018-02-12T06:40:27.340Z,1.81
2018-02-12T06:42:55.022Z,1.92
2018-02-12T06:45:22.580Z,1.99
2018-02-12T06:47:50.133Z,2.00
2018-02-12T06:50:17.854Z,2.03
2018-02-12T06:52:45.405Z,2.02
2018-02-12T06:55:12.966Z,2.10
2018-02-12T06:57:40.566Z,2.08
2018-02-12T07:00:09.131Z,2.09
2018-02-12T07:02:36.683Z,2.22
2018-02-12T07:05:04.367Z,2.23
2018-02-12T07:07:31.918Z,2.25
2018-02-12T07:09:59.468Z,2.29
2018-02-12T07:12:27.153Z,2.28
2018-02-12T07:14:54.707Z,2.25
2018-02-12T07:17:22.255Z,2.22
2018-02-12T07:19:49.833Z,2.32
2018-02-12T07:22:17.393Z,2.41
2018-02-12T07:24:44.941Z,2.44
2018-02-12T07:27:12.693Z,2.47
2018-02-12T07:29:40.252Z,2.40
2018-02-12T07:32:07.807Z,2.44
2018-02-12T07:34:35.379Z,2.59
2018-02-12T07:37:02.968Z,2.68
2018-02-12T07:39:30.523Z,2.64
2018-02-12T07:41:58.396Z,2.63
2018-02-12T07:44:25.949Z,2.68
2018-02-12T07:46:54.127Z,2.64
2018-02-12T07:49:21.914Z,2.50
2018-02-12T07:51:49.471Z,2.33
2018-02-12T07:54:17.016Z,2.33
2018-02-12T07:56:44.710Z,2.44
2018-02-12T07:59:12.273Z,2.45
2018-02-12T08:01:39.825Z,2.62
2018-02-12T08:04:07.418Z,2.50
2018-02-12T08:06:34.965Z,2.58
2018-02-12T08:09:02.515Z,2.70
2018-02-12T08:11:30.089Z,2.76
2018-02-12T08:13:57.634Z,2.73
2018-02-12T08:16:25.211Z,2.74
2018-02-12T08:18:52.765Z,2.75
2018-02-12T08:21:20.311Z,2.57
2018-02-12T08:23:47.892Z,2.59
2018-02-12T08:26:15.445Z,2.72
2018-02-12T08:28:43.000Z,2.85
2018-02-12T08:31:10.586Z,2.86
2018-02-12T08:33:38.142Z,2.90
2018-02-12T08:36:05.697Z,3.01
2018-02-12T08:38:33.432Z,3.14
2018-02-12T08:41:01.021Z,3.12
2018-02-12T08:43:28.569Z,3.10
2018-02-12T08:45:56.178Z,2.81
2018-02-12T08:48:23.726Z,2.83
2018-02-12T08:50:51.294Z,3.01
2018-02-12T08:53:18.875Z,3.17
2018-02-12T08:55:46.430Z,3.18
2018-02-12T08:58:13.982Z,2.95
2018-02-12T09:00:41.580Z,3.12
2018-02-12T09:03:09.140Z,3.04
2018-02-12T09:05:36.689Z,3.04
2018-02-12T09:08:04.399Z,3.23
2018-02-12T09:10:31.943Z,3.37
2018-02-12T09:12:59.499Z,3.30
2018-02-12T09:15:27.246Z,3.28
2018-02-12T09:17:54.827Z,3.37
2018-02-12T09:20:22.376Z,3.39
2018-02-12T09:22:50.059Z,3.45
2018-02-12T09:25:17.619Z,3.54
2018-02-12T09:27:45.167Z,3.48
2018-02-12T09:30:12.749Z,3.35
2018-02-12T09:32:40.303Z,3.20
2018-02-12T09:35:07.869Z,3.18
2018-02-12T09:37:35.551Z,3.26
2018-02-12T09:40:03.136Z,3.03
2018-02-12T09:42:30.694Z,2.75
2018-02-12T09:44:58.386Z,3.04
2018-02-12T09:47:25.938Z,3.24
2018-02-12T09:49:53.497Z,3.27
2018-02-12T09:52:21.180Z,3.44
2018-02-12T09:54:48.728Z,3.67
2018-02-12T09:57:16.270Z,3.69
2018-02-12T09:59:43.967Z,3.46
2018-02-12T10:02:12.862Z,3.00
2018-02-12T10:04:40.406Z,2.91
2018-02-12T10:07:07.985Z,2.59
2018-02-12T10:09:35.524Z,3.08
2018-02-12T10:12:03.075Z,3.38
2018-02-12T10:14:30.668Z,3.49
2018-02-12T10:16:58.239Z,3.77
2018-02-12T10:19:25.792Z,3.80
2018-02-12T10:21:53.395Z,3.30
2018-02-12T10:24:20.942Z,3.31
2018-02-12T10:26:48.518Z,3.61
2018-02-12T10:29:16.736Z,3.62
2018-02-12T10:31:44.285Z,3.50
2018-02-12T10:34:11.830Z,3.78
2018-02-12T10:36:39.398Z,3.52
2018-02-12T10:39:06.972Z,3.66
2018-02-12T10:41:34.523Z,3.71
2018-02-12T10:44:02.288Z,3.84
2018-02-12T10:46:29.868Z,3.67
2018-02-12T10:48:57.441Z,3.80
2018-02-12T10:51:25.172Z,3.84
2018-02-12T10:53:52.713Z,3.71
2018-02-12T10:56:20.275Z,3.82
2018-02-12T10:58:47.900Z,3.89
2018-02-12T11:01:15.465Z,3.90
2018-02-12T11:03:43.028Z,3.91
2018-02-12T11:06:10.606Z,3.88
2018-02-12T11:08:38.182Z,3.18
2018-02-12T11:11:05.730Z,3.15
2018-02-12T11:13:33.408Z,3.14
2018-02-12T11:16:00.971Z,3.35
2018-02-12T11:18:28.513Z,2.57
2018-02-12T11:20:56.095Z,2.57
2018-02-12T11:23:23.652Z,2.92
2018-02-12T11:25:51.204Z,3.10
2018-02-12T11:28:18.796Z,2.92
2018-02-12T11:30:46.369Z,2.67
2018-02-12T11:33:13.931Z,2.75
2018-02-12T11:35:41.507Z,3.10
2018-02-12T11:38:09.073Z,3.13
2018-02-12T11:40:36.630Z,3.14
2018-02-12T11:43:04.361Z,3.06
2018-02-12T11:45:31.915Z,3.08
2018-02-12T11:47:59.461Z,2.74
2018-02-12T11:50:27.154Z,2.52
2018-02-12T11:52:56.459Z,2.54
2018-02-12T11:55:24.006Z,2.87
2018-02-12T11:57:51.712Z,2.55
2018-02-12T12:00:19.278Z,2.34
2018-02-12T12:02:46.826Z,2.55
2018-02-12T12:05:14.561Z,2.45
2018-02-12T12:07:42.104Z,2.34
2018-02-12T12:10:09.660Z,2.62
2018-02-12T12:12:37.348Z,2.63
2018-02-12T12:15:04.921Z,2.57
2018-02-12T12:17:32.478Z,2.77
2018-02-12T12:20:00.231Z,2.51
2018-02-12T12:22:27.789Z,2.21
2018-02-12T12:24:55.337Z,2.27
2018-02-12T12:27:22.923Z,1.90
2018-02-12T12:29:50.478Z,1.97
2018-02-12T12:32:18.038Z,2.19
2018-02-12T12:34:45.775Z,2.29
2018-02-12T12:37:13.362Z,2.28
2018-02-12T12:39:40.917Z,2.29
2018-02-12T12:42:08.788Z,2.39
2018-02-12T12:44:36.332Z,2.33
2018-02-12T12:47:03.898Z,2.52
2018-02-12T12:49:31.484Z,2.10
2018-02-12T12:51:59.036Z,2.02
2018-02-12T12:54:26.588Z,2.03
2018-02-12T12:56:54.464Z,2.12
2018-02-12T12:59:22.004Z,1.99
2018-02-12T13:01:49.555Z,2.19
2018-02-12T13:04:17.301Z,2.51
2018-02-12T13:06:44.853Z,2.46
2018-02-12T13:09:12.416Z,2.75
2018-02-12T13:11:39.982Z,2.64
2018-02-12T13:14:07.541Z,2.79
2018-02-12T13:16:35.239Z,2.63
2018-02-12T13:19:02.787Z,2.61
2018-02-12T13:21:30.369Z,2.43
2018-02-12T13:23:58.020Z,2.54
2018-02-12T13:26:25.585Z,2.90
2018-02-12T13:28:53.148Z,2.58
2018-02-12T13:31:20.890Z,2.65
2018-02-12T13:33:48.439Z,2.92
2018-02-12T13:36:16.003Z,2.84
2018-02-12T13:38:43.583Z,2.54
2018-02-12T13:41:11.132Z,2.72
2018-02-12T13:43:38.728Z,3.03
2018-02-12T13:46:06.422Z,2.80
2018-02-12T13:48:33.979Z,3.00
2018-02-12T13:51:01.544Z,2.77
2018-02-12T13:53:29.134Z,3.07
2018-02-12T13:55:56.691Z,3.18
2018-02-12T13:58:24.264Z,2.72
2018-02-12T14:00:52.078Z,3.02
2018-02-12T14:03:19.638Z,3.20
2018-02-12T14:05:47.195Z,3.02
2018-02-12T14:08:15.416Z,3.04
2018-02-12T14:10:42.978Z,3.03
2018-02-12T14:13:10.531Z,3.18
2018-02-12T14:15:38.312Z,3.22
2018-02-12T14:18:06.547Z,3.09
2018-02-12T14:20:34.113Z,3.19
2018-02-12T14:23:01.693Z,2.95
2018-02-12T14:25:29.293Z,3.01
2018-02-12T14:27:56.870Z,3.10
2018-02-12T14:30:24.618Z,3.11
2018-02-12T14:32:52.174Z,3.19
2018-02-12T14:35:19.730Z,3.14
2018-02-12T14:37:47.339Z,3.18
2018-02-12T14:40:14.898Z,3.23
2018-02-12T14:42:42.462Z,3.16
2018-02-12T14:45:10.069Z,3.16
2018-02-12T14:47:37.621Z,3.17
2018-02-12T14:50:05.214Z,3.16
2018-02-12T14:52:32.903Z,3.13
2018-02-12T14:55:00.467Z,3.17
2018-02-12T14:57:28.039Z,3.19
2018-02-12T14:59:55.927Z,3.15
2018-02-12T15:02:23.501Z,3.01
2018-02-12T15:04:51.083Z,2.84
2018-02-12T15:07:18.951Z,2.65
2018-02-12T15:09:46.516Z,2.86
2018-02-12T15:12:14.072Z,2.88
2018-02-12T15:14:41.777Z,2.88
2018-02-12T15:17:09.329Z,2.78
2018-02-12T15:19:36.921Z,2.73
2018-02-12T15:22:04.789Z,2.63
2018-02-12T15:24:32.377Z,2.59
2018-02-12T15:26:59.943Z,2.68
2018-02-12T15:29:27.702Z,2.72
2018-02-12T15:31:55.259Z,2.80
2018-02-12T15:34:22.822Z,2.82
2018-02-12T15:36:50.477Z,2.83
2018-02-12T15:39:18.036Z,2.85
2018-02-12T15:41:46.537Z,2.79
2018-02-12T15:44:14.119Z,2.62
2018-02-12T15:46:41.686Z,2.60
2018-02-12T15:49:09.258Z,2.64
2018-02-12T15:51:37.163Z,2.46
2018-02-12T15:54:04.727Z,2.34
2018-02-12T15:56:32.320Z,2.25
2018-02-12T15:58:59.908Z,2.18
2018-02-12T16:01:27.462Z,2.30
2018-02-12T16:03:55.019Z,2.33
2018-02-12T16:06:22.597Z,2.30
2018-02-12T16:08:51.150Z,2.20
2018-02-12T16:11:18.707Z,2.20
2018-02-12T16:13:46.293Z,2.19
2018-02-12T16:16:13.860Z,2.10
2018-02-12T16:18:41.431Z,2.05
2018-02-12T16:21:09.160Z,2.12
2018-02-12T16:23:36.726Z,2.17
2018-02-12T16:26:04.283Z,2.15
2018-02-12T16:28:31.950Z,2.21
2018-02-12T16:30:59.494Z,2.37
2018-02-12T16:33:27.052Z,2.30
2018-02-12T16:35:54.655Z,2.26
2018-02-12T16:38:22.210Z,2.34
2018-02-12T16:40:49.785Z,2.39
2018-02-12T16:43:17.399Z,2.44
2018-02-12T16:45:44.968Z,2.57
2018-02-12T16:48:12.569Z,2.65
2018-02-12T16:50:40.422Z,2.50
2018-02-12T16:53:07.966Z,2.51
2018-02-12T16:55:35.524Z,2.59
2018-02-12T16:58:03.262Z,2.51
2018-02-12T17:00:30.826Z,2.42
2018-02-12T17:02:58.421Z,2.48
2018-02-12T17:05:26.021Z,2.46
2018-02-12T17:07:53.586Z,2.40
2018-02-12T17:10:21.147Z,2.39
2018-02-12T17:12:48.916Z,2.35
2018-02-12T17:15:16.491Z,2.34
2018-02-12T17:17:44.055Z,2.41
2018-02-12T17:20:11.653Z,2.43
2018-02-12T17:22:39.216Z,2.46
2018-02-12T17:25:06.782Z,2.50
2018-02-12T17:27:34.390Z,2.48
2018-02-12T17:30:01.959Z,2.44
2018-02-12T17:32:29.522Z,2.45
2018-02-12T17:34:57.112Z,2.49
2018-02-12T17:37:26.830Z,2.57
2018-02-12T17:39:54.439Z,2.58
2018-02-12T17:42:22.053Z,2.63
2018-02-12T17:44:49.651Z,2.56
2018-02-12T17:47:17.283Z,2.21
2018-02-12T17:49:44.913Z,2.01
2018-02-12T17:52:12.540Z,1.93
2018-02-12T17:54:40.106Z,1.89
2018-02-12T17:57:07.985Z,1.80
2018-02-12T17:59:35.606Z,1.80
2018-02-12T18:02:03.198Z,1.93
2018-02-12T18:04:30.802Z,2.05
2018-02-12T18:06:58.429Z,1.95
2018-02-12T18:09:25.990Z,1.98
2018-02-12T18:11:53.558Z,2.15
2018-02-12T18:14:21.127Z,2.36
2018-02-12T18:16:48.732Z,2.37
2018-02-12T18:19:16.983Z,2.27
2018-02-12T18:21:44.550Z,2.16
2018-02-12T18:24:12.151Z,2.10
2018-02-12T18:26:39.725Z,2.14
2018-02-12T18:29:07.269Z,2.24
2018-02-12T18:31:35.015Z,2.24
2018-02-12T18:34:02.576Z,2.33
2018-02-12T18:36:30.143Z,2.38
2018-02-12T18:38:57.943Z,2.43
2018-02-12T18:41:25.496Z,2.37
2018-02-12T18:43:53.080Z,2.22
2018-02-12T18:46:20.655Z,2.16
2018-02-12T18:48:48.234Z,2.15
2018-02-12T18:51:15.789Z,1.96
2018-02-12T18:53:43.545Z,1.86
2018-02-12T18:56:11.179Z,2.00
2018-02-12T18:58:38.759Z,2.02
2018-02-12T19:01:06.665Z,1.80
2018-02-12T19:03:34.237Z,1.79
2018-02-12T19:06:01.807Z,1.89
2018-02-12T19:08:29.468Z,1.85
2018-02-12T19:10:57.036Z,1.90
2018-02-12T19:13:24.646Z,2.07
2018-02-12T19:15:52.332Z,2.16
2018-02-12T19:18:19.891Z,2.24
2018-02-12T19:20:47.477Z,2.25
2018-02-12T19:23:15.238Z,2.28
2018-02-12T19:25:42.847Z,2.14
2018-02-12T19:28:10.437Z,1.89
2018-02-12T19:30:38.326Z,1.75
2018-02-12T19:33:05.950Z,1.69
2018-02-12T19:35:33.654Z,1.68
2018-02-12T19:38:01.432Z,1.80
2018-02-12T19:40:29.020Z,1.88
2018-02-12T19:42:56.609Z,2.00
2018-02-12T19:45:24.310Z,2.01
2018-02-12T19:47:51.878Z,2.04
2018-02-12T19:50:19.465Z,1.88
2018-02-12T19:52:47.370Z,1.69
2018-02-12T19:55:14.947Z,1.52
2018-02-12T19:57:42.525Z,1.60
2018-02-12T20:00:10.327Z,1.40
2018-02-12T20:02:37.910Z,1.29
2018-02-12T20:05:05.501Z,1.14
2018-02-12T20:07:33.288Z,1.10
2018-02-12T20:10:00.942Z,0.98
2018-02-12T20:12:28.537Z,0.83
2018-02-12T20:14:56.304Z,0.75
2018-02-12T20:17:23.857Z,0.88
2018-02-12T20:19:51.470Z,1.15
2018-02-12T20:22:19.213Z,1.09
2018-02-12T20:24:46.829Z,1.23
2018-02-12T20:27:14.446Z,1.06
2018-02-12T20:29:42.172Z,0.91
2018-02-12T20:32:09.727Z,0.87
2018-02-12T20:34:37.311Z,0.97
2018-02-12T20:37:04.914Z,1.00
2018-02-12T20:39:32.496Z,0.96
2018-02-12T20:42:00.071Z,1.13
2018-02-12T20:44:27.670Z,1.29
2018-02-12T20:46:55.259Z,1.21
2018-02-12T20:49:22.836Z,1.05
2018-02-12T20:51:50.647Z,0.95
2018-02-12T20:54:18.210Z,0.94
2018-02-12T20:56:45.834Z,0.85
2018-02-12T20:59:13.604Z,1.00
2018-02-12T21:01:41.208Z,1.20
2018-02-12T21:04:08.768Z,1.07
2018-02-12T21:06:36.501Z,0.91
2018-02-12T21:09:04.129Z,0.95
2018-02-12T21:11:31.683Z,1.12
2018-02-12T21:13:59.433Z,0.99
2018-02-12T21:16:26.986Z,0.79
2018-02-12T21:18:54.567Z,0.70
2018-02-12T21:21:22.277Z,0.88
2018-02-12T21:23:49.868Z,1.06
2018-02-12T21:26:17.417Z,1.08
2018-02-12T21:28:45.122Z,0.82
2018-02-12T21:31:12.669Z,0.70
2018-02-12T21:33:40.232Z,0.81
2018-02-12T21:36:08.122Z,0.75
2018-02-12T21:38:35.681Z,0.61
2018-02-12T21:41:03.241Z,0.50
2018-02-12T21:43:31.011Z,0.46
2018-02-12T21:45:58.567Z,0.47
2018-02-12T21:48:26.142Z,0.50
2018-02-12T21:50:53.858Z,0.51
2018-02-12T21:53:21.411Z,0.49
2018-02-12T21:55:48.959Z,0.48
2018-02-12T21:58:16.561Z,0.48
2018-02-12T22:00:44.131Z,0.41
2018-02-12T22:03:11.690Z,0.29
2018-02-12T22:05:39.382Z,0.17
2018-02-12T22:08:06.950Z,0.15
2018-02-12T22:10:34.519Z,0.10
2018-02-12T22:13:02.094Z,0.09
2018-02-12T22:15:29.655Z,0.00
2018-02-12T22:17:57.215Z,-0.01
2018-02-12T22:20:24.966Z,0.01
2018-02-12T22:22:52.523Z,0.00
2018-02-12T22:25:20.084Z,-0.09
2018-02-12T22:27:47.821Z,-0.08
2018-02-12T22:30:15.380Z,-0.16
2018-02-12T22:32:42.942Z,-0.25
2018-02-12T22:35:10.647Z,-0.24
2018-02-12T22:37:38.206Z,-0.30
2018-02-12T22:40:05.765Z,-0.28
2018-02-12T22:42:33.500Z,-0.28
2018-02-12T22:45:01.073Z,-0.24
2018-02-12T22:47:28.663Z,-0.22
2018-02-12T22:49:56.405Z,-0.27
2018-02-12T22:52:23.966Z,-0.35
2018-02-12T22:54:51.521Z,-0.39
2018-02-12T22:57:19.261Z,-0.41
2018-02-12T22:59:46.808Z,-0.41
2018-02-12T23:02:14.374Z,-0.42
2018-02-12T23:04:42.064Z,-0.48
2018-02-12T23:07:09.634Z,-0.43
2018-02-12T23:09:37.199Z,-0.42
2018-02-12T23:12:04.760Z,-0.19
2018-02-12T23:14:32.309Z,-0.26
2018-02-12T23:17:05.434Z,-0.27
2018-02-12T23:19:32.995Z,-0.44
2018-02-12T23:22:00.545Z,-0.48
2018-02-12T23:24:28.287Z,-0.52
2018-02-12T23:26:55.843Z,-0.55
2018-02-12T23:29:23.399Z,-0.62
2018-02-12T23:31:51.996Z,-0.68
2018-02-12T23:34:19.543Z,-0.66
2018-02-12T23:36:47.091Z,-0.65
2018-02-12T23:39:14.682Z,-0.66
2018-02-12T23:41:42.231Z,-0.67
2018-02-12T23:44:09.793Z,-0.69
2018-02-12T23:46:37.478Z,-0.72
2018-02-12T23:49:05.026Z,-0.69
2018-02-12T23:51:32.580Z,-0.63
2018-02-12T23:54:00.462Z,-0.64
2018-02-12T23:56:28.014Z,-0.67
2018-02-12T23:58:55.564Z,-0.66
